sensor_id;sensor_type;location;lat;lon;timestamp;P1;durP1;ratioP1;P2;durP2;ratioP2
26034;SDS011;13809;48.632;11.576;2022-11-12T00:04:07;6.03;;;3.87;;
26034;SDS011;13809;48.632;11.576;2022-11-12T00:09:10;3.87;;;3.57;;
26034;SDS011;13809;48.632;11.576;2022-11-12T00:14:13;16.17;;;3.80;;
26034;SDS011;13809;48.632;11.576;2022-11-12T00:19:18;17.73;;;3.93;;
26034;SDS011;13809;48.632;11.576;2022-11-12T00:24:21;3.20;;;3.00;;
26034;SDS011;13809;48.632;11.576;2022-11-12T00:29:24;25.20;;;3.83;;
26034;SDS011;13809;48.632;11.576;2022-11-12T00:34:29;3.67;;;3.13;;
26034;SDS011;13809;48.632;11.576;2022-11-12T00:39:32;9.20;;;3.53;;
26034;SDS011;13809;48.632;11.576;2022-11-12T00:44:35;39.23;;;3.73;;
26034;SDS011;13809;48.632;11.576;2022-11-12T00:49:40;4.07;;;3.23;;
26034;SDS011;13809;48.632;11.576;2022-11-12T00:54:43;26.03;;;3.70;;
26034;SDS011;13809;48.632;11.576;2022-11-12T00:59:46;46.83;;;4.43;;
26034;SDS011;13809;48.632;11.576;2022-11-12T01:04:50;12.17;;;3.90;;
26034;SDS011;13809;48.632;11.576;2022-11-12T01:09:53;6.83;;;3.27;;
26034;SDS011;13809;48.632;11.576;2022-11-12T01:14:57;16.30;;;3.80;;
26034;SDS011;13809;48.632;11.576;2022-11-12T01:20:01;12.13;;;3.90;;
26034;SDS011;13809;48.632;11.576;2022-11-12T01:25:05;4.37;;;3.60;;
26034;SDS011;13809;48.632;11.576;2022-11-12T01:30:09;3.80;;;3.50;;
26034;SDS011;13809;48.632;11.576;2022-11-12T01:35:14;17.60;;;4.13;;
26034;SDS011;13809;48.632;11.576;2022-11-12T01:40:17;3.60;;;3.30;;
26034;SDS011;13809;48.632;11.576;2022-11-12T01:45:20;9.47;;;3.90;;
26034;SDS011;13809;48.632;11.576;2022-11-12T01:50:26;4.20;;;3.90;;
26034;SDS011;13809;48.632;11.576;2022-11-12T01:55:33;16.27;;;3.90;;
26034;SDS011;13809;48.632;11.576;2022-11-12T02:00:39;9.57;;;4.13;;
26034;SDS011;13809;48.632;11.576;2022-11-12T02:05:44;19.67;;;3.93;;
26034;SDS011;13809;48.632;11.576;2022-11-12T02:10:49;4.07;;;3.67;;
26034;SDS011;13809;48.632;11.576;2022-11-12T02:15:52;4.50;;;4.20;;
26034;SDS011;13809;48.632;11.576;2022-11-12T02:21:02;4.10;;;3.80;;
26034;SDS011;13809;48.632;11.576;2022-11-12T02:26:08;8.03;;;3.77;;
26034;SDS011;13809;48.632;11.576;2022-11-12T02:31:11;3.87;;;3.57;;
26034;SDS011;13809;48.632;11.576;2022-11-12T02:36:14;3.30;;;3.10;;
26034;SDS011;13809;48.632;11.576;2022-11-12T02:41:19;4.60;;;4.03;;
26034;SDS011;13809;48.632;11.576;2022-11-12T02:46:22;3.40;;;3.20;;
26034;SDS011;13809;48.632;11.576;2022-11-12T02:51:25;3.93;;;3.63;;
26034;SDS011;13809;48.632;11.576;2022-11-12T02:56:30;7.87;;;3.33;;
26034;SDS011;13809;48.632;11.576;2022-11-12T03:01:33;3.20;;;3.00;;
26034;SDS011;13809;48.632;11.576;2022-11-12T03:06:36;13.60;;;3.83;;
26034;SDS011;13809;48.632;11.576;2022-11-12T03:11:41;6.53;;;3.57;;
26034;SDS011;13809;48.632;11.576;2022-11-12T03:16:44;4.47;;;3.17;;
26034;SDS011;13809;48.632;11.576;2022-11-12T03:21:47;27.90;;;4.30;;
26034;SDS011;13809;48.632;11.576;2022-11-12T03:26:52;3.73;;;3.53;;
26034;SDS011;13809;48.632;11.576;2022-11-12T03:31:55;6.17;;;3.67;;
26034;SDS011;13809;48.632;11.576;2022-11-12T03:36:58;7.10;;;3.70;;
26034;SDS011;13809;48.632;11.576;2022-11-12T03:42:02;4.17;;;3.37;;
26034;SDS011;13809;48.632;11.576;2022-11-12T03:47:06;39.07;;;4.33;;
26034;SDS011;13809;48.632;11.576;2022-11-12T03:52:09;6.83;;;4.10;;
26034;SDS011;13809;48.632;11.576;2022-11-12T03:57:13;15.63;;;4.00;;
26034;SDS011;13809;48.632;11.576;2022-11-12T04:02:16;7.10;;;3.60;;
26034;SDS011;13809;48.632;11.576;2022-11-12T04:07:19;7.47;;;4.00;;
26034;SDS011;13809;48.632;11.576;2022-11-12T04:12:44;6.83;;;3.53;;
26034;SDS011;13809;48.632;11.576;2022-11-12T04:18:04;4.53;;;4.23;;
26034;SDS011;13809;48.632;11.576;2022-11-12T04:23:25;3.83;;;3.63;;
26034;SDS011;13809;48.632;11.576;2022-11-12T04:28:30;3.90;;;3.60;;
26034;SDS011;13809;48.632;11.576;2022-11-12T04:33:33;3.70;;;3.50;;
26034;SDS011;13809;48.632;11.576;2022-11-12T04:38:36;3.47;;;3.27;;
26034;SDS011;13809;48.632;11.576;2022-11-12T04:43:40;12.57;;;3.63;;
26034;SDS011;13809;48.632;11.576;2022-11-12T04:49:01;10.53;;;3.90;;
26034;SDS011;13809;48.632;11.576;2022-11-12T04:54:05;36.10;;;3.97;;
26034;SDS011;13809;48.632;11.576;2022-11-12T04:59:09;28.77;;;4.03;;
26034;SDS011;13809;48.632;11.576;2022-11-12T05:04:12;43.67;;;4.00;;
26034;SDS011;13809;48.632;11.576;2022-11-12T05:09:15;5.33;;;3.57;;
26034;SDS011;13809;48.632;11.576;2022-11-12T05:14:20;8.30;;;3.40;;
26034;SDS011;13809;48.632;11.576;2022-11-12T05:19:24;21.03;;;3.23;;
26034;SDS011;13809;48.632;11.576;2022-11-12T05:24:27;14.67;;;3.70;;
26034;SDS011;13809;48.632;11.576;2022-11-12T05:29:44;3.67;;;3.37;;
26034;SDS011;13809;48.632;11.576;2022-11-12T05:34:47;9.37;;;3.00;;
26034;SDS011;13809;48.632;11.576;2022-11-12T05:39:50;5.23;;;2.83;;
26034;SDS011;13809;48.632;11.576;2022-11-12T05:44:55;16.70;;;2.87;;
26034;SDS011;13809;48.632;11.576;2022-11-12T05:49:58;2.97;;;2.77;;
26034;SDS011;13809;48.632;11.576;2022-11-12T05:55:01;10.77;;;3.00;;
26034;SDS011;13809;48.632;11.576;2022-11-12T06:00:06;15.03;;;2.97;;
26034;SDS011;13809;48.632;11.576;2022-11-12T06:05:10;3.37;;;3.10;;
26034;SDS011;13809;48.632;11.576;2022-11-12T06:10:14;3.20;;;3.00;;
26034;SDS011;13809;48.632;11.576;2022-11-12T06:15:22;3.60;;;3.40;;
26034;SDS011;13809;48.632;11.576;2022-11-12T06:20:27;3.53;;;3.30;;
26034;SDS011;13809;48.632;11.576;2022-11-12T06:25:30;3.33;;;3.13;;
26034;SDS011;13809;48.632;11.576;2022-11-12T06:30:35;17.03;;;3.20;;
26034;SDS011;13809;48.632;11.576;2022-11-12T06:35:38;8.40;;;2.80;;
26034;SDS011;13809;48.632;11.576;2022-11-12T06:40:43;4.30;;;3.67;;
26034;SDS011;13809;48.632;11.576;2022-11-12T06:45:48;3.23;;;3.03;;
26034;SDS011;13809;48.632;11.576;2022-11-12T06:50:51;2.93;;;2.73;;
26034;SDS011;13809;48.632;11.576;2022-11-12T06:55:54;3.03;;;2.83;;
26034;SDS011;13809;48.632;11.576;2022-11-12T07:01:08;12.03;;;2.90;;
26034;SDS011;13809;48.632;11.576;2022-11-12T07:06:14;5.77;;;3.00;;
26034;SDS011;13809;48.632;11.576;2022-11-12T07:11:19;8.00;;;2.80;;
26034;SDS011;13809;48.632;11.576;2022-11-12T07:16:24;3.57;;;2.80;;
26034;SDS011;13809;48.632;11.576;2022-11-12T07:21:27;13.50;;;3.07;;
26034;SDS011;13809;48.632;11.576;2022-11-12T07:26:30;6.10;;;2.47;;
26034;SDS011;13809;48.632;11.576;2022-11-12T07:31:35;33.20;;;3.23;;
26034;SDS011;13809;48.632;11.576;2022-11-12T07:36:38;3.90;;;3.50;;
26034;SDS011;13809;48.632;11.576;2022-11-12T07:41:41;4.00;;;3.70;;
26034;SDS011;13809;48.632;11.576;2022-11-12T07:46:45;10.07;;;3.70;;
26034;SDS011;13809;48.632;11.576;2022-11-12T07:51:49;44.63;;;3.97;;
26034;SDS011;13809;48.632;11.576;2022-11-12T07:56:52;4.40;;;3.43;;
26034;SDS011;13809;48.632;11.576;2022-11-12T08:01:56;2.50;;;2.30;;
26034;SDS011;13809;48.632;11.576;2022-11-12T08:07:00;11.17;;;2.73;;
26034;SDS011;13809;48.632;11.576;2022-11-12T08:12:03;16.40;;;3.40;;
26034;SDS011;13809;48.632;11.576;2022-11-12T08:17:08;7.57;;;3.40;;
26034;SDS011;13809;48.632;11.576;2022-11-12T08:22:11;11.33;;;3.33;;
26034;SDS011;13809;48.632;11.576;2022-11-12T08:27:15;23.30;;;3.47;;
26034;SDS011;13809;48.632;11.576;2022-11-12T08:32:20;10.90;;;2.77;;
26034;SDS011;13809;48.632;11.576;2022-11-12T08:37:23;2.93;;;2.73;;
26034;SDS011;13809;48.632;11.576;2022-11-12T08:42:26;2.60;;;2.40;;
26034;SDS011;13809;48.632;11.576;2022-11-12T08:47:30;10.13;;;3.20;;
26034;SDS011;13809;48.632;11.576;2022-11-12T08:52:34;8.60;;;3.27;;
26034;SDS011;13809;48.632;11.576;2022-11-12T08:57:40;5.13;;;3.40;;
26034;SDS011;13809;48.632;11.576;2022-11-12T09:02:45;10.00;;;3.67;;
26034;SDS011;13809;48.632;11.576;2022-11-12T09:07:55;3.60;;;3.30;;
26034;SDS011;13809;48.632;11.576;2022-11-12T09:12:59;6.00;;;3.13;;
26034;SDS011;13809;48.632;11.576;2022-11-12T09:18:05;2.80;;;2.60;;
26034;SDS011;13809;48.632;11.576;2022-11-12T09:23:10;2.90;;;2.70;;
26034;SDS011;13809;48.632;11.576;2022-11-12T09:28:14;2.63;;;2.53;;
26034;SDS011;13809;48.632;11.576;2022-11-12T09:33:22;12.40;;;3.40;;
26034;SDS011;13809;48.632;11.576;2022-11-12T09:38:26;4.37;;;3.00;;
26034;SDS011;13809;48.632;11.576;2022-11-12T09:43:31;9.73;;;3.50;;
26034;SDS011;13809;48.632;11.576;2022-11-12T09:48:40;3.53;;;3.33;;
26034;SDS011;13809;48.632;11.576;2022-11-12T09:53:51;3.53;;;3.33;;
26034;SDS011;13809;48.632;11.576;2022-11-12T09:58:57;4.00;;;3.70;;
26034;SDS011;13809;48.632;11.576;2022-11-12T10:04:05;4.10;;;3.47;;
26034;SDS011;13809;48.632;11.576;2022-11-12T10:09:32;6.60;;;3.93;;
26034;SDS011;13809;48.632;11.576;2022-11-12T10:14:43;6.70;;;4.17;;
26034;SDS011;13809;48.632;11.576;2022-11-12T10:19:59;14.63;;;4.17;;
26034;SDS011;13809;48.632;11.576;2022-11-12T10:25:12;4.33;;;3.77;;
26034;SDS011;13809;48.632;11.576;2022-11-12T10:30:18;7.40;;;4.27;;
26034;SDS011;13809;48.632;11.576;2022-11-12T10:35:23;16.10;;;4.80;;
26034;SDS011;13809;48.632;11.576;2022-11-12T10:40:28;11.93;;;5.30;;
26034;SDS011;13809;48.632;11.576;2022-11-12T10:45:34;5.77;;;5.03;;
26034;SDS011;13809;48.632;11.576;2022-11-12T10:50:40;8.43;;;5.70;;
26034;SDS011;13809;48.632;11.576;2022-11-12T10:55:53;9.40;;;5.50;;
26034;SDS011;13809;48.632;11.576;2022-11-12T11:00:58;7.87;;;5.80;;
26034;SDS011;13809;48.632;11.576;2022-11-12T11:06:05;6.70;;;6.10;;
26034;SDS011;13809;48.632;11.576;2022-11-12T11:11:20;6.43;;;5.90;;
26034;SDS011;13809;48.632;11.576;2022-11-12T11:16:26;6.87;;;6.27;;
26034;SDS011;13809;48.632;11.576;2022-11-12T11:21:33;6.90;;;6.40;;
26034;SDS011;13809;48.632;11.576;2022-11-12T11:26:55;8.70;;;7.80;;
26034;SDS011;13809;48.632;11.576;2022-11-12T11:32:06;8.97;;;8.00;;
26034;SDS011;13809;48.632;11.576;2022-11-12T11:37:23;9.43;;;8.63;;
26034;SDS011;13809;48.632;11.576;2022-11-12T11:42:36;8.60;;;7.90;;
26034;SDS011;13809;48.632;11.576;2022-11-12T11:48:01;6.00;;;5.50;;
26034;SDS011;13809;48.632;11.576;2022-11-12T11:53:17;9.03;;;8.33;;
26034;SDS011;13809;48.632;11.576;2022-11-12T11:58:40;8.53;;;7.83;;
26034;SDS011;13809;48.632;11.576;2022-11-12T12:04:15;10.60;;;9.70;;
26034;SDS011;13809;48.632;11.576;2022-11-12T12:09:36;11.27;;;10.27;;
26034;SDS011;13809;48.632;11.576;2022-11-12T12:14:49;13.47;;;12.07;;
26034;SDS011;13809;48.632;11.576;2022-11-12T12:20:00;12.83;;;11.60;;
26034;SDS011;13809;48.632;11.576;2022-11-12T12:25:15;12.13;;;11.00;;
26034;SDS011;13809;48.632;11.576;2022-11-12T12:30:23;11.00;;;10.10;;
26034;SDS011;13809;48.632;11.576;2022-11-12T12:35:28;9.70;;;8.90;;
26034;SDS011;13809;48.632;11.576;2022-11-12T12:40:38;11.07;;;10.17;;
26034;SDS011;13809;48.632;11.576;2022-11-12T12:45:47;10.70;;;9.80;;
26034;SDS011;13809;48.632;11.576;2022-11-12T12:50:50;10.67;;;9.77;;
26034;SDS011;13809;48.632;11.576;2022-11-12T12:55:56;9.07;;;8.33;;
26034;SDS011;13809;48.632;11.576;2022-11-12T13:01:02;9.47;;;8.77;;
26034;SDS011;13809;48.632;11.576;2022-11-12T13:06:13;9.17;;;8.37;;
26034;SDS011;13809;48.632;11.576;2022-11-12T13:17:08;9.27;;;8.50;;
26034;SDS011;13809;48.632;11.576;2022-11-12T13:28:10;9.00;;;8.20;;
26034;SDS011;13809;48.632;11.576;2022-11-12T13:33:18;9.97;;;9.17;;
26034;SDS011;13809;48.632;11.576;2022-11-12T13:38:33;9.03;;;8.30;;
26034;SDS011;13809;48.632;11.576;2022-11-12T13:43:41;9.43;;;8.63;;
26034;SDS011;13809;48.632;11.576;2022-11-12T13:48:47;8.03;;;7.33;;
26034;SDS011;13809;48.632;11.576;2022-11-12T13:53:58;7.93;;;7.33;;
26034;SDS011;13809;48.632;11.576;2022-11-12T13:59:13;7.80;;;7.13;;
26034;SDS011;13809;48.632;11.576;2022-11-12T14:04:19;7.10;;;6.50;;
26034;SDS011;13809;48.632;11.576;2022-11-12T14:09:28;7.17;;;6.67;;
26034;SDS011;13809;48.632;11.576;2022-11-12T14:14:49;7.67;;;6.97;;
26034;SDS011;13809;48.632;11.576;2022-11-12T14:20:19;9.80;;;9.00;;
26034;SDS011;13809;48.632;11.576;2022-11-12T14:25:26;12.20;;;11.00;;
26034;SDS011;13809;48.632;11.576;2022-11-12T14:30:31;11.10;;;10.00;;
26034;SDS011;13809;48.632;11.576;2022-11-12T14:35:35;10.10;;;9.20;;
26034;SDS011;13809;48.632;11.576;2022-11-12T14:40:41;9.60;;;8.73;;
26034;SDS011;13809;48.632;11.576;2022-11-12T14:45:48;11.63;;;10.63;;
26034;SDS011;13809;48.632;11.576;2022-11-12T14:50:54;12.63;;;11.60;;
26034;SDS011;13809;48.632;11.576;2022-11-12T14:56:01;13.73;;;12.63;;
26034;SDS011;13809;48.632;11.576;2022-11-12T15:01:17;15.47;;;14.17;;
26034;SDS011;13809;48.632;11.576;2022-11-12T15:06:49;11.90;;;10.73;;
26034;SDS011;13809;48.632;11.576;2022-11-12T15:11:53;12.83;;;11.73;;
26034;SDS011;13809;48.632;11.576;2022-11-12T15:16:58;12.47;;;11.47;;
26034;SDS011;13809;48.632;11.576;2022-11-12T15:22:01;15.53;;;14.13;;
26034;SDS011;13809;48.632;11.576;2022-11-12T15:32:36;12.87;;;11.87;;
26034;SDS011;13809;48.632;11.576;2022-11-12T15:37:40;14.10;;;13.00;;
26034;SDS011;13809;48.632;11.576;2022-11-12T15:42:44;18.27;;;16.77;;
26034;SDS011;13809;48.632;11.576;2022-11-12T15:47:50;14.80;;;13.60;;
26034;SDS011;13809;48.632;11.576;2022-11-12T15:52:54;13.87;;;12.67;;
26034;SDS011;13809;48.632;11.576;2022-11-12T15:57:57;13.17;;;11.87;;
26034;SDS011;13809;48.632;11.576;2022-11-12T16:03:05;11.90;;;10.90;;
26034;SDS011;13809;48.632;11.576;2022-11-12T16:08:15;12.20;;;11.10;;
26034;SDS011;13809;48.632;11.576;2022-11-12T16:13:28;12.20;;;11.20;;
26034;SDS011;13809;48.632;11.576;2022-11-12T16:18:36;11.93;;;10.93;;
26034;SDS011;13809;48.632;11.576;2022-11-12T16:23:39;12.10;;;11.10;;
26034;SDS011;13809;48.632;11.576;2022-11-12T16:28:42;12.77;;;11.67;;
26034;SDS011;13809;48.632;11.576;2022-11-12T16:33:46;14.63;;;13.13;;
26034;SDS011;13809;48.632;11.576;2022-11-12T16:38:50;12.87;;;11.60;;
26034;SDS011;13809;48.632;11.576;2022-11-12T16:43:53;11.97;;;10.97;;
26034;SDS011;13809;48.632;11.576;2022-11-12T16:48:58;14.57;;;13.27;;
26034;SDS011;13809;48.632;11.576;2022-11-12T16:54:01;14.27;;;12.97;;
26034;SDS011;13809;48.632;11.576;2022-11-12T16:59:04;13.67;;;12.47;;
26034;SDS011;13809;48.632;11.576;2022-11-12T17:04:09;14.53;;;13.23;;
26034;SDS011;13809;48.632;11.576;2022-11-12T17:09:14;14.27;;;13.07;;
26034;SDS011;13809;48.632;11.576;2022-11-12T17:14:18;14.43;;;13.20;;
26034;SDS011;13809;48.632;11.576;2022-11-12T17:19:29;13.90;;;12.70;;
26034;SDS011;13809;48.632;11.576;2022-11-12T17:24:32;12.57;;;11.47;;
26034;SDS011;13809;48.632;11.576;2022-11-12T17:29:36;11.77;;;10.70;;
26034;SDS011;13809;48.632;11.576;2022-11-12T17:34:40;12.03;;;10.97;;
26034;SDS011;13809;48.632;11.576;2022-11-12T17:39:43;20.73;;;14.53;;
26034;SDS011;13809;48.632;11.576;2022-11-12T17:44:46;14.70;;;13.40;;
26034;SDS011;13809;48.632;11.576;2022-11-12T17:49:51;19.73;;;11.47;;
26034;SDS011;13809;48.632;11.576;2022-11-12T17:54:54;15.30;;;11.97;;
26034;SDS011;13809;48.632;11.576;2022-11-12T17:59:57;14.73;;;12.70;;
26034;SDS011;13809;48.632;11.576;2022-11-12T18:05:02;15.67;;;11.57;;
26034;SDS011;13809;48.632;11.576;2022-11-12T18:10:05;13.80;;;11.40;;
26034;SDS011;13809;48.632;11.576;2022-11-12T18:15:09;12.40;;;11.23;;
26034;SDS011;13809;48.632;11.576;2022-11-12T18:20:14;11.37;;;10.37;;
26034;SDS011;13809;48.632;11.576;2022-11-12T18:25:19;11.70;;;10.70;;
26034;SDS011;13809;48.632;11.576;2022-11-12T18:30:23;12.73;;;10.80;;
26034;SDS011;13809;48.632;11.576;2022-11-12T18:35:27;12.00;;;10.03;;
26034;SDS011;13809;48.632;11.576;2022-11-12T18:40:30;17.13;;;9.70;;
26034;SDS011;13809;48.632;11.576;2022-11-12T18:45:33;9.87;;;8.97;;
26034;SDS011;13809;48.632;11.576;2022-11-12T18:50:38;9.77;;;8.97;;
26034;SDS011;13809;48.632;11.576;2022-11-12T18:55:41;22.00;;;9.33;;
26034;SDS011;13809;48.632;11.576;2022-11-12T19:00:44;26.50;;;8.93;;
26034;SDS011;13809;48.632;11.576;2022-11-12T19:05:55;8.20;;;7.60;;
26034;SDS011;13809;48.632;11.576;2022-11-12T19:10:59;11.57;;;8.70;;
26034;SDS011;13809;48.632;11.576;2022-11-12T19:16:05;13.23;;;8.77;;
26034;SDS011;13809;48.632;11.576;2022-11-12T19:21:14;28.23;;;9.53;;
26034;SDS011;13809;48.632;11.576;2022-11-12T19:26:18;70.23;;;9.10;;
26034;SDS011;13809;48.632;11.576;2022-11-12T19:31:22;9.20;;;8.50;;
26034;SDS011;13809;48.632;11.576;2022-11-12T19:36:30;39.47;;;9.00;;
26034;SDS011;13809;48.632;11.576;2022-11-12T19:41:33;13.53;;;8.27;;
26034;SDS011;13809;48.632;11.576;2022-11-12T19:46:36;9.43;;;8.43;;
26034;SDS011;13809;48.632;11.576;2022-11-12T19:51:40;8.90;;;8.20;;
26034;SDS011;13809;48.632;11.576;2022-11-12T19:56:43;8.80;;;8.10;;
26034;SDS011;13809;48.632;11.576;2022-11-12T20:01:47;9.93;;;7.87;;
26034;SDS011;13809;48.632;11.576;2022-11-12T20:06:51;8.80;;;8.00;;
26034;SDS011;13809;48.632;11.576;2022-11-12T20:11:54;7.17;;;6.40;;
26034;SDS011;13809;48.632;11.576;2022-11-12T20:16:58;28.93;;;8.40;;
26034;SDS011;13809;48.632;11.576;2022-11-12T20:22:02;38.63;;;7.87;;
26034;SDS011;13809;48.632;11.576;2022-11-12T20:27:06;8.47;;;7.87;;
26034;SDS011;13809;48.632;11.576;2022-11-12T20:32:09;32.93;;;7.87;;
26034;SDS011;13809;48.632;11.576;2022-11-12T20:37:13;19.77;;;7.43;;
26034;SDS011;13809;48.632;11.576;2022-11-12T20:42:18;9.10;;;7.10;;
26034;SDS011;13809;48.632;11.576;2022-11-12T20:47:22;10.43;;;7.70;;
26034;SDS011;13809;48.632;11.576;2022-11-12T20:52:26;8.70;;;8.00;;
26034;SDS011;13809;48.632;11.576;2022-11-12T20:57:29;9.07;;;6.97;;
26034;SDS011;13809;48.632;11.576;2022-11-12T21:02:32;9.90;;;6.90;;
26034;SDS011;13809;48.632;11.576;2022-11-12T21:07:37;7.13;;;6.53;;
26034;SDS011;13809;48.632;11.576;2022-11-12T21:12:40;10.17;;;6.30;;
26034;SDS011;13809;48.632;11.576;2022-11-12T21:17:43;6.87;;;6.37;;
26034;SDS011;13809;48.632;11.576;2022-11-12T21:22:48;17.53;;;5.83;;
26034;SDS011;13809;48.632;11.576;2022-11-12T21:27:51;10.50;;;5.63;;
26034;SDS011;13809;48.632;11.576;2022-11-12T21:32:54;6.70;;;6.20;;
26034;SDS011;13809;48.632;11.576;2022-11-12T21:37:59;27.37;;;6.30;;
26034;SDS011;13809;48.632;11.576;2022-11-12T21:43:02;8.77;;;6.03;;
26034;SDS011;13809;48.632;11.576;2022-11-12T21:48:05;9.13;;;7.00;;
26034;SDS011;13809;48.632;11.576;2022-11-12T21:53:09;7.73;;;6.50;;
26034;SDS011;13809;48.632;11.576;2022-11-12T21:58:13;7.67;;;6.60;;
26034;SDS011;13809;48.632;11.576;2022-11-12T22:03:16;7.27;;;6.67;;
26034;SDS011;13809;48.632;11.576;2022-11-12T22:08:20;15.17;;;7.03;;
26034;SDS011;13809;48.632;11.576;2022-11-12T22:13:23;11.63;;;6.80;;
26034;SDS011;13809;48.632;11.576;2022-11-12T22:18:28;17.53;;;6.90;;
26034;SDS011;13809;48.632;11.576;2022-11-12T22:23:34;22.73;;;6.63;;
26034;SDS011;13809;48.632;11.576;2022-11-12T22:28:37;12.53;;;6.60;;
26034;SDS011;13809;48.632;11.576;2022-11-12T22:33:41;6.87;;;6.37;;
26034;SDS011;13809;48.632;11.576;2022-11-12T22:38:46;14.73;;;6.60;;
26034;SDS011;13809;48.632;11.576;2022-11-12T22:43:51;48.73;;;6.77;;
26034;SDS011;13809;48.632;11.576;2022-11-12T22:48:55;11.90;;;6.30;;
26034;SDS011;13809;48.632;11.576;2022-11-12T22:54:02;9.87;;;6.50;;
26034;SDS011;13809;48.632;11.576;2022-11-12T22:59:10;6.80;;;5.83;;
26034;SDS011;13809;48.632;11.576;2022-11-12T23:04:14;20.97;;;6.03;;
26034;SDS011;13809;48.632;11.576;2022-11-12T23:09:18;9.70;;;5.50;;
26034;SDS011;13809;48.632;11.576;2022-11-12T23:14:22;13.63;;;4.93;;
26034;SDS011;13809;48.632;11.576;2022-11-12T23:19:25;16.27;;;5.73;;
26034;SDS011;13809;48.632;11.576;2022-11-12T23:24:29;16.83;;;4.90;;
26034;SDS011;13809;48.632;11.576;2022-11-12T23:29:33;11.23;;;4.97;;
26034;SDS011;13809;48.632;11.576;2022-11-12T23:34:36;4.57;;;4.27;;
26034;SDS011;13809;48.632;11.576;2022-11-12T23:39:40;16.20;;;5.50;;
26034;SDS011;13809;48.632;11.576;2022-11-12T23:44:43;15.63;;;5.73;;
26034;SDS011;13809;48.632;11.576;2022-11-12T23:49:47;17.03;;;4.77;;
26034;SDS011;13809;48.632;11.576;2022-11-12T23:54:51;14.37;;;5.73;;
26034;SDS011;13809;48.632;11.576;2022-11-12T23:59:54;5.83;;;5.30;;
